createdAt,value
2022-12-25T00:02:08.624Z,99272.56
2022-12-25T00:05:11.353Z,99270.56
2022-12-25T00:08:14.205Z,99270.72
2022-12-25T00:11:18.038Z,99269.22
2022-12-25T00:14:22.144Z,99271.03
2022-12-25T00:17:24.916Z,99266.69
2022-12-25T00:20:27.622Z,99276.22
2022-12-25T00:23:30.396Z,99271.72
2022-12-25T00:26:33.157Z,99266.53
2022-12-25T00:29:37.411Z,99277.25
2022-12-25T00:32:40.120Z,99276.91
2022-12-25T00:35:43.242Z,99271.38
2022-12-25T00:38:46.046Z,99270.38
2022-12-25T00:42:06.076Z,99273.19
2022-12-25T00:45:10.924Z,99275.06
2022-12-25T00:48:13.723Z,99274.53
2022-12-25T00:51:16.471Z,99264.66
2022-12-25T00:54:19.635Z,99276.50
2022-12-25T00:57:22.432Z,99271.69
2022-12-25T01:00:26.544Z,99277.50
2022-12-25T01:03:29.637Z,99269.31
2022-12-25T01:06:32.772Z,99275.28
2022-12-25T01:09:52.671Z,99279.97
2022-12-25T01:12:55.378Z,99276.63
2022-12-25T01:15:59.700Z,99282.09
2022-12-25T01:19:03.038Z,99289.47
2022-12-25T01:22:05.788Z,99290.22
2022-12-25T01:25:09.228Z,99283.09
2022-12-25T01:28:12.004Z,99286.13
2022-12-25T01:31:17.910Z,99278.94
2022-12-25T01:34:20.746Z,99285.28
2022-12-25T01:37:24.545Z,99289.81
2022-12-25T01:40:27.403Z,99286.94
2022-12-25T01:43:31.875Z,99279.59
2022-12-25T01:46:36.493Z,99282.59
2022-12-25T01:49:40.305Z,99289.44
2022-12-25T01:52:43.197Z,99297.94
2022-12-25T01:55:46.687Z,99292.75
2022-12-25T01:58:52.262Z,99295.66
2022-12-25T02:01:56.945Z,99285.47
2022-12-25T02:05:02.769Z,99286.28
2022-12-25T02:08:08.830Z,99296.09
2022-12-25T02:11:31.925Z,99291.63
2022-12-25T02:14:36.394Z,99294.94
2022-12-25T02:17:43.503Z,99297.59
2022-12-25T02:21:04.341Z,99293.22
2022-12-25T02:24:15.634Z,99296.25
2022-12-25T02:27:23.607Z,99291.91
2022-12-25T02:30:27.855Z,99294.56
2022-12-25T02:33:50.760Z,99294.88
2022-12-25T02:36:57.778Z,99299.25
2022-12-25T02:40:03.148Z,99303.88
2022-12-25T02:43:40.712Z,99298.88
2022-12-25T02:47:02.721Z,99300.88
2022-12-25T02:50:23.777Z,99309.56
2022-12-25T02:53:44.474Z,99310.88
2022-12-25T02:57:06.278Z,99310.19
2022-12-25T03:00:27.679Z,99317.69
2022-12-25T03:03:51.583Z,99316.22
2022-12-25T03:06:59.802Z,99317.78
2022-12-25T03:10:22.429Z,99319.97
2022-12-25T03:13:28.969Z,99329.88
2022-12-25T03:16:49.430Z,99325.41
2022-12-25T03:20:11.162Z,99326.09
2022-12-25T03:23:32.551Z,99319.75
2022-12-25T03:26:52.873Z,99321.50
2022-12-25T03:30:13.401Z,99325.00
2022-12-25T03:33:43.725Z,99325.84
2022-12-25T03:36:49.888Z,99328.53
2022-12-25T03:40:09.668Z,99341.75
2022-12-25T03:43:34.258Z,99337.59
2022-12-25T03:46:56.795Z,99344.31
2022-12-25T03:50:21.878Z,99338.44
2022-12-25T03:53:45.818Z,99341.63
2022-12-25T03:57:06.286Z,99341.28
2022-12-25T04:00:27.351Z,99341.47
2022-12-25T04:03:47.847Z,99343.66
2022-12-25T04:07:08.037Z,99344.97
2022-12-25T04:10:29.825Z,99348.84
2022-12-25T04:13:49.822Z,99353.72
2022-12-25T04:17:09.835Z,99354.38
2022-12-25T04:20:30.374Z,99350.34
2022-12-25T04:23:50.915Z,99348.00
2022-12-25T04:27:12.386Z,99358.72
2022-12-25T04:30:32.779Z,99360.22
2022-12-25T04:33:53.208Z,99364.25
2022-12-25T04:36:56.042Z,99366.56
2022-12-25T04:39:58.768Z,99356.22
2022-12-25T04:43:02.927Z,99360.56
2022-12-25T04:46:07.113Z,99364.59
2022-12-25T04:49:09.868Z,99362.75
2022-12-25T04:52:12.648Z,99372.13
2022-12-25T04:55:15.500Z,99378.66
2022-12-25T04:58:19.643Z,99387.88
2022-12-25T05:01:22.584Z,99383.50
2022-12-25T05:04:25.565Z,99394.38
2022-12-25T05:07:28.351Z,99386.19
2022-12-25T05:10:31.108Z,99390.88
2022-12-25T05:13:35.479Z,99393.88
2022-12-25T05:16:38.342Z,99391.22
2022-12-25T05:19:41.102Z,99392.69
2022-12-25T05:22:43.898Z,99386.34
2022-12-25T05:25:46.734Z,99393.41
2022-12-25T05:28:51.237Z,99386.34
2022-12-25T05:31:54.027Z,99389.19
2022-12-25T05:34:56.776Z,99395.91
2022-12-25T05:37:59.467Z,99399.25
2022-12-25T05:41:02.259Z,99408.47
2022-12-25T05:44:06.460Z,99411.97
2022-12-25T05:47:09.235Z,99409.47
2022-12-25T05:50:12.134Z,99414.47
2022-12-25T05:53:15.867Z,99423.81
2022-12-25T05:56:18.723Z,99418.66
2022-12-25T05:59:22.796Z,99428.53
2022-12-25T06:02:26.149Z,99437.06
2022-12-25T06:05:29.088Z,99436.44
2022-12-25T06:08:31.850Z,99435.06
2022-12-25T06:11:34.657Z,99430.72
2022-12-25T06:14:38.806Z,99431.06
2022-12-25T06:17:41.569Z,99433.06
2022-12-25T06:20:44.309Z,99436.25
2022-12-25T06:23:47.312Z,99433.06
2022-12-25T06:26:50.112Z,99442.44
2022-12-25T06:29:54.324Z,99438.22
2022-12-25T06:32:57.140Z,99435.41
2022-12-25T06:35:59.956Z,99443.66
2022-12-25T06:39:03.332Z,99437.09
2022-12-25T06:42:06.148Z,99443.13
2022-12-25T06:45:10.996Z,99435.94
2022-12-25T06:48:13.666Z,99436.94
2022-12-25T06:51:16.986Z,99443.28
2022-12-25T06:54:19.724Z,99447.97
2022-12-25T06:57:22.470Z,99448.44
2022-12-25T07:00:26.664Z,99446.44
2022-12-25T07:03:30.365Z,99451.28
2022-12-25T07:06:33.209Z,99443.72
2022-12-25T07:09:39.866Z,99444.91
2022-12-25T07:12:42.695Z,99445.22
2022-12-25T07:15:46.799Z,99450.56
2022-12-25T07:18:49.586Z,99447.41
2022-12-25T07:21:52.384Z,99448.69
2022-12-25T07:24:55.416Z,99448.19
2022-12-25T07:27:58.189Z,99450.00
2022-12-25T07:31:05.956Z,99450.34
2022-12-25T07:34:08.748Z,99457.19
2022-12-25T07:37:11.665Z,99462.69
2022-12-25T07:40:14.541Z,99470.06
2022-12-25T07:43:18.354Z,99470.19
2022-12-25T07:46:23.249Z,99465.34
2022-12-25T07:49:26.178Z,99460.16
2022-12-25T07:52:28.900Z,99470.31
2022-12-25T07:55:31.600Z,99467.66
2022-12-25T07:58:34.457Z,99473.16
2022-12-25T08:01:38.751Z,99473.16
2022-12-25T08:04:42.885Z,99483.50
2022-12-25T08:07:45.653Z,99475.84
2022-12-25T08:10:49.345Z,99481.16
2022-12-25T08:13:52.151Z,99482.63
2022-12-25T08:16:56.311Z,99495.16
2022-12-25T08:19:59.128Z,99490.66
2022-12-25T08:23:02.108Z,99490.81
2022-12-25T08:26:06.008Z,99490.06
2022-12-25T08:29:08.859Z,99487.91
2022-12-25T08:32:13.025Z,99485.34
2022-12-25T08:35:17.761Z,99494.25
2022-12-25T08:38:20.493Z,99496.22
2022-12-25T08:41:23.266Z,99497.38
2022-12-25T08:44:26.078Z,99498.22
2022-12-25T08:47:30.262Z,99491.03
2022-12-25T08:50:33.001Z,99491.25
2022-12-25T08:53:35.753Z,99485.72
2022-12-25T08:56:38.639Z,99487.50
2022-12-25T08:59:41.368Z,99488.53
2022-12-25T09:02:45.542Z,99494.94
2022-12-25T09:05:48.402Z,99502.63
2022-12-25T09:08:51.204Z,99496.81
2022-12-25T09:11:54.024Z,99501.53
2022-12-25T09:14:56.763Z,99499.53
2022-12-25T09:18:00.935Z,99496.50
2022-12-25T09:21:04.373Z,99504.75
2022-12-25T09:24:07.355Z,99503.91
2022-12-25T09:27:10.100Z,99503.25
2022-12-25T09:30:12.980Z,99499.28
2022-12-25T09:33:17.112Z,99503.25
2022-12-25T09:36:21.399Z,99510.28
2022-12-25T09:42:58.439Z,99505.47
2022-12-25T09:46:02.902Z,99505.13
2022-12-25T09:49:09.415Z,99506.81
2022-12-25T09:52:14.967Z,99513.34
2022-12-25T09:55:21.125Z,99514.50
2022-12-25T09:58:25.312Z,99504.84
2022-12-25T10:01:31.996Z,99506.50
2022-12-25T10:04:47.153Z,99503.66
2022-12-25T10:07:57.392Z,99504.00
2022-12-25T10:11:05.852Z,99504.50
2022-12-25T10:14:15.814Z,99499.66
2022-12-25T10:17:27.356Z,99505.69
2022-12-25T10:20:38.178Z,99501.47
2022-12-25T10:23:42.055Z,99508.38
2022-12-25T10:26:45.873Z,99506.34
2022-12-25T10:29:51.036Z,99497.66
2022-12-25T10:32:54.451Z,99503.84
2022-12-25T10:35:58.944Z,99510.22
2022-12-25T10:39:01.728Z,99505.84
2022-12-25T10:42:25.148Z,99508.72
2022-12-25T10:45:27.853Z,99507.72
2022-12-25T10:48:31.507Z,99507.84
2022-12-25T10:51:36.780Z,99507.72
2022-12-25T10:54:39.566Z,99513.44
2022-12-25T10:57:46.280Z,99507.41
2022-12-25T11:00:53.379Z,99514.44
2022-12-25T11:03:56.165Z,99514.44
2022-12-25T11:07:04.081Z,99515.44
2022-12-25T11:10:20.502Z,99516.59
2022-12-25T11:13:25.022Z,99513.38
2022-12-25T11:16:29.203Z,99524.44
2022-12-25T11:19:33.125Z,99528.41
2022-12-25T11:22:38.117Z,99523.22
2022-12-25T11:25:40.876Z,99520.53
2022-12-25T11:28:44.339Z,99525.34
2022-12-25T11:31:47.687Z,99517.81
2022-12-25T11:34:50.602Z,99524.00
2022-12-25T11:37:55.183Z,99520.97
2022-12-25T11:40:59.991Z,99522.28
2022-12-25T11:44:06.055Z,99517.59
2022-12-25T11:47:12.988Z,99520.72
2022-12-25T11:50:20.399Z,99525.56
2022-12-25T11:53:28.639Z,99524.22
2022-12-25T11:56:32.175Z,99528.72
2022-12-25T11:59:38.701Z,99528.19
2022-12-25T12:02:44.783Z,99522.31
2022-12-25T12:05:49.054Z,99523.78
2022-12-25T12:08:56.449Z,99534.50
2022-12-25T12:12:02.408Z,99531.13
2022-12-25T12:15:10.186Z,99538.84
2022-12-25T12:18:20.490Z,99535.50
2022-12-25T12:21:24.131Z,99556.19
2022-12-25T12:24:30.934Z,99551.72
2022-12-25T12:27:35.958Z,99554.50
2022-12-25T12:30:38.798Z,99555.50
2022-12-25T12:33:43.524Z,99560.19
2022-12-25T12:36:46.423Z,99559.50
2022-12-25T12:39:52.485Z,99564.03
2022-12-25T12:42:55.272Z,99572.16
2022-12-25T12:45:59.225Z,99567.13
2022-12-25T12:49:09.552Z,99566.13
2022-12-25T12:52:24.456Z,99573.47
2022-12-25T12:55:32.154Z,99564.63
2022-12-25T12:58:35.622Z,99572.94
2022-12-25T13:01:41.911Z,99560.72
2022-12-25T13:04:51.469Z,99574.38
2022-12-25T13:07:58.217Z,99574.38
2022-12-25T13:11:08.603Z,99573.72
2022-12-25T13:14:14.803Z,99580.22
2022-12-25T13:17:19.886Z,99581.22
2022-12-25T13:20:25.248Z,99587.69
2022-12-25T13:23:28.943Z,99590.38
2022-12-25T13:26:33.100Z,99588.53
2022-12-25T13:29:36.359Z,99596.72
2022-12-25T13:32:39.162Z,99592.53
2022-12-25T13:35:43.989Z,99599.72
2022-12-25T13:38:47.293Z,99605.91
2022-12-25T13:42:09.944Z,99604.22
2022-12-25T13:45:20.693Z,99608.00
2022-12-25T13:48:25.703Z,99607.50
2022-12-25T13:51:28.894Z,99607.03
2022-12-25T13:54:31.698Z,99610.84
2022-12-25T13:57:38.221Z,99615.34
2022-12-25T14:00:46.937Z,99617.34
2022-12-25T14:03:49.864Z,99624.66
2022-12-25T14:06:54.027Z,99619.31
2022-12-25T14:10:00.293Z,99623.81
2022-12-25T14:13:05.951Z,99633.69
2022-12-25T14:16:09.197Z,99637.50
2022-12-25T14:19:23.954Z,99631.78
2022-12-25T14:22:27.349Z,99636.13
2022-12-25T14:25:31.066Z,99631.47
2022-12-25T14:28:36.578Z,99643.31
2022-12-25T14:31:40.396Z,99637.13
2022-12-25T14:34:43.757Z,99639.28
2022-12-25T14:37:47.240Z,99641.22
2022-12-25T14:40:58.911Z,99643.91
2022-12-25T14:44:05.797Z,99642.22
2022-12-25T14:47:16.685Z,99652.91
2022-12-25T14:50:26.095Z,99650.41
2022-12-25T14:53:33.515Z,99647.88
2022-12-25T14:56:39.266Z,99661.25
2022-12-25T14:59:43.509Z,99659.41
2022-12-25T15:02:47.434Z,99652.50
2022-12-25T15:05:58.917Z,99659.25
2022-12-25T15:09:02.405Z,99665.03
2022-12-25T15:12:05.390Z,99665.88
2022-12-25T15:15:10.328Z,99665.88
2022-12-25T15:18:13.100Z,99673.06
2022-12-25T15:21:17.896Z,99661.69
2022-12-25T15:24:20.670Z,99675.19
2022-12-25T15:27:23.924Z,99677.03
2022-12-25T15:30:30.440Z,99668.19
2022-12-25T15:33:33.653Z,99677.16
2022-12-25T15:36:36.478Z,99675.34
2022-12-25T15:39:39.258Z,99678.88
2022-12-25T15:42:44.863Z,99680.00
2022-12-25T15:45:49.301Z,99682.13
2022-12-25T15:48:52.092Z,99686.22
2022-12-25T15:51:54.910Z,99678.72
2022-12-25T15:54:57.636Z,99683.66
2022-12-25T15:58:00.368Z,99684.66
2022-12-25T16:01:04.701Z,99690.16
2022-12-25T16:04:08.494Z,99693.91
2022-12-25T16:07:14.951Z,99695.00
2022-12-25T16:10:20.590Z,99703.50
2022-12-25T16:13:23.468Z,99701.81
2022-12-25T16:16:27.689Z,99697.41
2022-12-25T16:19:30.615Z,99712.91
2022-12-25T16:22:40.128Z,99709.41
2022-12-25T16:25:42.924Z,99714.94
2022-12-25T16:28:45.815Z,99714.25
2022-12-25T16:31:50.026Z,99712.63
2022-12-25T16:34:52.784Z,99704.16
2022-12-25T16:37:55.525Z,99706.16
2022-12-25T16:40:58.958Z,99711.66
2022-12-25T16:44:04.790Z,99711.34
2022-12-25T16:47:09.378Z,99713.84
2022-12-25T16:50:13.357Z,99716.53
2022-12-25T16:53:17.337Z,99716.53
2022-12-25T16:56:21.196Z,99722.78
2022-12-25T16:59:24.988Z,99717.91
2022-12-25T17:02:29.428Z,99719.16
2022-12-25T17:05:34.155Z,99714.09
2022-12-25T17:08:36.919Z,99717.59
2022-12-25T17:11:39.680Z,99719.97
2022-12-25T17:14:42.912Z,99708.28
2022-12-25T17:17:47.098Z,99712.09
2022-12-25T17:20:53.786Z,99712.94
2022-12-25T17:24:02.292Z,99719.66
2022-12-25T17:27:08.816Z,99722.34
2022-12-25T17:30:11.980Z,99717.53
2022-12-25T17:33:16.120Z,99713.53
2022-12-25T17:36:20.319Z,99718.19
2022-12-25T17:39:23.672Z,99727.06
2022-12-25T17:42:26.755Z,99719.41
2022-12-25T17:45:29.523Z,99722.41
2022-12-25T17:48:33.772Z,99731.97
2022-12-25T17:51:37.805Z,99723.31
2022-12-25T17:54:42.484Z,99721.94
2022-12-25T17:57:45.279Z,99710.78
2022-12-25T18:00:48.005Z,99713.44
2022-12-25T18:03:55.683Z,99719.09
2022-12-25T18:06:58.756Z,99722.31
2022-12-25T18:10:01.802Z,99723.22
2022-12-25T18:13:04.531Z,99724.22
2022-12-25T18:16:08.548Z,99719.47
2022-12-25T18:19:13.660Z,99717.31
2022-12-25T18:22:16.589Z,99719.84
2022-12-25T18:25:19.364Z,99713.66
2022-12-25T18:28:22.119Z,99716.19
2022-12-25T18:31:26.323Z,99719.84
2022-12-25T18:34:30.478Z,99721.00
2022-12-25T18:37:39.751Z,99725.88
2022-12-25T18:40:43.435Z,99726.56
2022-12-25T18:43:52.401Z,99725.06
2022-12-25T18:46:58.250Z,99729.94
2022-12-25T18:50:02.696Z,99727.06
2022-12-25T18:53:05.838Z,99725.50
2022-12-25T18:56:09.596Z,99723.63
2022-12-25T18:59:12.407Z,99726.75
2022-12-25T19:02:16.552Z,99731.44
2022-12-25T19:05:21.684Z,99736.56
2022-12-25T19:08:24.463Z,99736.72
2022-12-25T19:11:27.412Z,99735.34
2022-12-25T19:14:47.711Z,99739.00
2022-12-25T19:17:50.999Z,99744.69
2022-12-25T19:20:55.484Z,99747.53
2022-12-25T19:23:58.312Z,99745.28
2022-12-25T19:27:01.069Z,99747.81
2022-12-25T19:30:04.100Z,99748.56
2022-12-25T19:33:15.604Z,99749.25
2022-12-25T19:36:21.939Z,99746.06
2022-12-25T19:39:24.709Z,99752.69
2022-12-25T19:42:27.995Z,99752.31
2022-12-25T19:45:30.975Z,99760.34
2022-12-25T19:48:34.790Z,99756.97
2022-12-25T19:51:40.519Z,99763.47
2022-12-25T19:54:43.382Z,99764.63
2022-12-25T19:57:46.134Z,99761.81
2022-12-25T20:00:57.461Z,99765.00
2022-12-25T20:04:00.477Z,99773.06
2022-12-25T20:07:04.556Z,99769.00
2022-12-25T20:10:07.815Z,99780.00
2022-12-25T20:13:10.502Z,99770.31
2022-12-25T20:16:13.573Z,99763.28
2022-12-25T20:19:16.634Z,99763.41
2022-12-25T20:22:20.733Z,99762.88
2022-12-25T20:25:23.542Z,99761.88
2022-12-25T20:28:26.307Z,99767.56
2022-12-25T20:31:30.121Z,99768.50
2022-12-25T20:34:32.902Z,99772.19
2022-12-25T20:37:37.051Z,99771.50
2022-12-25T20:41:00.432Z,99768.16
2022-12-25T20:44:04.382Z,99769.09
2022-12-25T20:47:07.161Z,99772.66
2022-12-25T20:50:10.087Z,99766.84
2022-12-25T20:53:14.411Z,99779.78
2022-12-25T20:56:18.547Z,99778.47
2022-12-25T20:59:21.326Z,99784.75
2022-12-25T21:02:34.620Z,99779.38
2022-12-25T21:05:49.728Z,99778.94
2022-12-25T21:08:54.162Z,99785.50
2022-12-25T21:11:56.880Z,99785.44
2022-12-25T21:15:00.458Z,99782.59
2022-12-25T21:18:03.800Z,99782.44
2022-12-25T21:21:07.758Z,99785.06
2022-12-25T21:24:12.069Z,99771.28
2022-12-25T21:27:14.872Z,99780.69
2022-12-25T21:30:17.694Z,99781.06
2022-12-25T21:33:37.872Z,99785.56
2022-12-25T21:36:41.472Z,99788.25
2022-12-25T21:39:45.611Z,99790.16
2022-12-25T21:42:48.399Z,99792.53
2022-12-25T21:45:51.201Z,99789.47
2022-12-25T21:48:54.617Z,99787.34
2022-12-25T21:52:17.104Z,99792.69
2022-12-25T21:55:21.277Z,99789.75
2022-12-25T21:58:24.017Z,99794.91
2022-12-25T22:01:27.027Z,99786.69
2022-12-25T22:04:29.858Z,99786.19
2022-12-25T22:07:32.651Z,99786.41
2022-12-25T22:10:38.206Z,99794.72
2022-12-25T22:13:58.587Z,99798.28
2022-12-25T22:17:19.071Z,99788.75
2022-12-25T22:20:23.119Z,99797.50
2022-12-25T22:23:25.896Z,99794.59
2022-12-25T22:26:30.058Z,99798.03
2022-12-25T22:29:32.816Z,99791.66
2022-12-25T22:32:35.634Z,99796.34
2022-12-25T22:35:38.394Z,99790.00
2022-12-25T22:38:42.757Z,99802.53
2022-12-25T22:41:46.880Z,99791.16
2022-12-25T22:44:51.384Z,99789.69
2022-12-25T22:47:55.636Z,99795.88
2022-12-25T22:51:03.361Z,99802.75
2022-12-25T22:54:07.908Z,99803.97
2022-12-25T22:57:13.923Z,99799.91
2022-12-25T23:00:18.023Z,99801.09
2022-12-25T23:03:22.499Z,99797.25
2022-12-25T23:06:26.780Z,99806.94
2022-12-25T23:09:31.107Z,99810.63
2022-12-25T23:12:53.848Z,99815.53
2022-12-25T23:15:58.256Z,99816.06
2022-12-25T23:19:19.200Z,99816.69
2022-12-25T23:22:54.009Z,99820.75
2022-12-25T23:26:09.152Z,99818.84
2022-12-25T23:29:31.051Z,99828.25
2022-12-25T23:32:33.837Z,99829.75
2022-12-25T23:35:36.697Z,99830.75
2022-12-25T23:38:39.476Z,99833.44
2022-12-25T23:41:48.898Z,99842.88
2022-12-25T23:44:53.019Z,99840.19
2022-12-25T23:47:55.765Z,99847.53
2022-12-25T23:50:58.454Z,99842.47
2022-12-25T23:54:01.207Z,99841.94
2022-12-25T23:57:03.972Z,99844.53
